Maxwell AFB Gunter Annex, Alabama
Current Conditions -  °F | °C
As of 1:23 AM on Wednesday 22 Oct 2014 (Local Time) from KMXF Reporting Station
Moderate Fog Moderate Fog  
Wind Chill: 52°   Ceiling: Unl
Heat Index: 52°   Visibility: 0.5mi
Dew Point: 52°   Wind: 1mph
Humidity: 100%   Direction: 220°SW
Pressure: 30.03"   Gusts: NA
Location:  32.4045°N, 86.2459°W
Report Text: KMXF 220623Z AUTO 22001KT 1/2SM R15/1400FT FG CLR 11/11 A3003 RMK AO2 VIS 1/2V1
Loading
Personal Weather Stations






























Interactive Weather Map
Tropical Storm Tracking
New forecast layout! Learn more

10-Day Weather Forecast

Advertisements
Track Severe Weather on mobile